Aérodrome :
LOGIN :

S'inscrire | Disclaimer

   EN    FR    IT 

 










Légende :    VFR   VFR Marginal   IFR   IFR Intensif   IFR Très Intensif
Visi : 
Plafond : 
>= 8 km
>= 3000ft
5 à 8 km
1000 à 3000 ft
1500m à 5 km
500 à 1000 ft
800 à 1500m
200 à 500 ft
< 800m
< 200 ft
Symboles :   Orages  Brouillard  Fortes neiges  Fortes précipitations  Vent > 20 kt
SIGMETs :   Divers  Orages  Givrage  Turbulence  Onde Orograph.  Cendres Volcan.







- Altitude de l'aérodrome : 289 ft
- Voir les cartes d'approche


LFYR - Romorantin Pruniers

DERNIER METAR :
  • 211800Z AUTO 08007KT 9999 ///TCU 17/11 Q1018 TEMPO 4000 SHRA

METARs EXPIRÉS :
  • 211730Z AUTO 09008KT 9999 ///TCU 18/11 Q1018 TEMPO 4000 SHRA
  • 211700Z AUTO 02003KT 280V070 9999 ///CB 19/11 Q1018 TEMPO 4000 SHRA
  • 211630Z AUTO 33010G21KT 280V010 9999 BKN048/// BKN064/// BKN090/// ///CB 20/10 Q1017 TEMPO 4000 SHRA
  • 211600Z AUTO 31003KT 260V350 9999 ///CB 21/11 Q1017 TEMPO 4000 SHRA
  • 211530Z AUTO VRB03KT 9999 ///CB 20/11 Q1017 TEMPO 4000 SHRA

Prévision TAF périmée.
Pas de NOTAMs connus pour ce terrain.



MET'MAP, la Météo Aéronautique d'un coup d'oeil ! - Copyright ORBIFLY Décembre 2007 - Disclaimer

ORBIFLY MET'MAP TEAM :

Programmation & Développement : Alexandra Zaïnal
Conception & Développement : Baudouin d'Aumeries
Co-Programmation & Développement : Marc-Olivier Méhu
Soutien technique & logistique : Manuel Goepfert

Contact : metmap@orbifly.com




SOURCES & CREDITS :

   NOAA